sensor_id;sensor_type;location;lat;lon;timestamp;P1;durP1;ratioP1;P2;durP2;ratioP2
12141;SDS011;6134;59.284;18.022;2023-01-04T00:01:34;1.33;;;1.08;;
12141;SDS011;6134;59.284;18.022;2023-01-04T00:04:03;2.25;;;1.40;;
12141;SDS011;6134;59.284;18.022;2023-01-04T00:06:32;1.85;;;1.33;;
12141;SDS011;6134;59.284;18.022;2023-01-04T00:09:01;0.90;;;0.90;;
12141;SDS011;6134;59.284;18.022;2023-01-04T00:11:29;2.00;;;1.35;;
12141;SDS011;6134;59.284;18.022;2023-01-04T00:13:58;1.13;;;0.95;;
12141;SDS011;6134;59.284;18.022;2023-01-04T00:16:28;2.95;;;1.70;;
12141;SDS011;6134;59.284;18.022;2023-01-04T00:18:58;2.05;;;1.20;;
12141;SDS011;6134;59.284;18.022;2023-01-04T00:21:27;1.23;;;0.95;;
12141;SDS011;6134;59.284;18.022;2023-01-04T00:23:57;1.17;;;0.93;;
12141;SDS011;6134;59.284;18.022;2023-01-04T00:26:26;1.33;;;1.20;;
12141;SDS011;6134;59.284;18.022;2023-01-04T00:28:57;2.35;;;1.23;;
12141;SDS011;6134;59.284;18.022;2023-01-04T00:31:27;1.60;;;1.33;;
12141;SDS011;6134;59.284;18.022;2023-01-04T00:33:56;1.58;;;1.20;;
12141;SDS011;6134;59.284;18.022;2023-01-04T00:36:27;1.60;;;1.40;;
12141;SDS011;6134;59.284;18.022;2023-01-04T00:38:56;4.22;;;1.35;;
12141;SDS011;6134;59.284;18.022;2023-01-04T00:41:36;1.80;;;1.40;;
12141;SDS011;6134;59.284;18.022;2023-01-04T00:44:25;2.83;;;1.30;;
12141;SDS011;6134;59.284;18.022;2023-01-04T00:46:54;2.55;;;1.45;;
12141;SDS011;6134;59.284;18.022;2023-01-04T00:49:23;3.53;;;1.20;;
12141;SDS011;6134;59.284;18.022;2023-01-04T00:51:53;1.45;;;1.35;;
12141;SDS011;6134;59.284;18.022;2023-01-04T00:54:22;1.75;;;1.33;;
12141;SDS011;6134;59.284;18.022;2023-01-04T00:56:51;3.42;;;1.45;;
12141;SDS011;6134;59.284;18.022;2023-01-04T00:59:20;3.10;;;1.25;;
12141;SDS011;6134;59.284;18.022;2023-01-04T01:01:49;2.58;;;1.35;;
12141;SDS011;6134;59.284;18.022;2023-01-04T01:04:19;1.90;;;1.10;;
12141;SDS011;6134;59.284;18.022;2023-01-04T01:06:48;2.80;;;1.42;;
12141;SDS011;6134;59.284;18.022;2023-01-04T01:09:19;1.55;;;1.27;;
12141;SDS011;6134;59.284;18.022;2023-01-04T01:11:49;1.65;;;1.23;;
12141;SDS011;6134;59.284;18.022;2023-01-04T01:14:18;1.88;;;1.20;;
12141;SDS011;6134;59.284;18.022;2023-01-04T01:16:48;1.77;;;1.27;;
12141;SDS011;6134;59.284;18.022;2023-01-04T01:19:23;3.00;;;1.40;;
12141;SDS011;6134;59.284;18.022;2023-01-04T01:21:52;2.35;;;1.40;;
12141;SDS011;6134;59.284;18.022;2023-01-04T01:24:24;1.70;;;1.30;;
12141;SDS011;6134;59.284;18.022;2023-01-04T01:26:53;2.28;;;1.55;;
12141;SDS011;6134;59.284;18.022;2023-01-04T01:29:22;1.40;;;1.30;;
12141;SDS011;6134;59.284;18.022;2023-01-04T01:31:50;2.13;;;1.48;;
12141;SDS011;6134;59.284;18.022;2023-01-04T01:34:20;2.13;;;1.48;;
12141;SDS011;6134;59.284;18.022;2023-01-04T01:36:48;1.48;;;1.10;;
12141;SDS011;6134;59.284;18.022;2023-01-04T01:39:17;1.83;;;1.40;;
12141;SDS011;6134;59.284;18.022;2023-01-04T01:41:47;1.50;;;1.20;;
12141;SDS011;6134;59.284;18.022;2023-01-04T01:47:03;2.38;;;1.40;;
12141;SDS011;6134;59.284;18.022;2023-01-04T01:49:32;1.73;;;1.30;;
12141;SDS011;6134;59.284;18.022;2023-01-04T01:52:04;1.70;;;1.40;;
12141;SDS011;6134;59.284;18.022;2023-01-04T01:54:34;1.15;;;1.05;;
12141;SDS011;6134;59.284;18.022;2023-01-04T01:57:06;2.25;;;1.45;;
12141;SDS011;6134;59.284;18.022;2023-01-04T01:59:35;1.45;;;1.27;;
12141;SDS011;6134;59.284;18.022;2023-01-04T02:02:05;5.20;;;1.45;;
12141;SDS011;6134;59.284;18.022;2023-01-04T02:04:34;3.20;;;1.40;;
12141;SDS011;6134;59.284;18.022;2023-01-04T02:07:04;1.73;;;1.15;;
12141;SDS011;6134;59.284;18.022;2023-01-04T02:09:33;4.45;;;1.58;;
12141;SDS011;6134;59.284;18.022;2023-01-04T02:12:02;2.25;;;1.40;;
12141;SDS011;6134;59.284;18.022;2023-01-04T02:14:33;1.75;;;1.40;;
12141;SDS011;6134;59.284;18.022;2023-01-04T02:17:04;1.73;;;1.33;;
12141;SDS011;6134;59.284;18.022;2023-01-04T02:19:42;2.03;;;1.25;;
12141;SDS011;6134;59.284;18.022;2023-01-04T02:22:22;1.55;;;1.13;;
12141;SDS011;6134;59.284;18.022;2023-01-04T02:25:05;2.67;;;1.30;;
12141;SDS011;6134;59.284;18.022;2023-01-04T02:27:43;2.55;;;1.33;;
12141;SDS011;6134;59.284;18.022;2023-01-04T02:33:02;2.35;;;1.58;;
12141;SDS011;6134;59.284;18.022;2023-01-04T02:35:34;3.22;;;1.50;;
12141;SDS011;6134;59.284;18.022;2023-01-04T02:38:07;3.55;;;1.67;;
12141;SDS011;6134;59.284;18.022;2023-01-04T02:40:43;1.80;;;1.45;;
12141;SDS011;6134;59.284;18.022;2023-01-04T02:43:17;2.28;;;1.55;;
12141;SDS011;6134;59.284;18.022;2023-01-04T02:46:07;2.58;;;1.73;;
12141;SDS011;6134;59.284;18.022;2023-01-04T02:48:39;2.22;;;1.67;;
12141;SDS011;6134;59.284;18.022;2023-01-04T02:51:27;2.90;;;1.75;;
12141;SDS011;6134;59.284;18.022;2023-01-04T02:53:56;2.20;;;1.40;;
12141;SDS011;6134;59.284;18.022;2023-01-04T02:56:28;3.90;;;1.35;;
12141;SDS011;6134;59.284;18.022;2023-01-04T02:59:10;3.83;;;2.03;;
12141;SDS011;6134;59.284;18.022;2023-01-04T03:01:44;2.95;;;1.88;;
12141;SDS011;6134;59.284;18.022;2023-01-04T03:04:43;2.40;;;1.30;;
12141;SDS011;6134;59.284;18.022;2023-01-04T03:07:33;1.30;;;1.20;;
12141;SDS011;6134;59.284;18.022;2023-01-04T03:10:06;2.03;;;1.33;;
12141;SDS011;6134;59.284;18.022;2023-01-04T03:12:38;1.75;;;1.55;;
12141;SDS011;6134;59.284;18.022;2023-01-04T03:15:10;3.53;;;1.65;;
12141;SDS011;6134;59.284;18.022;2023-01-04T03:17:41;2.83;;;1.40;;
12141;SDS011;6134;59.284;18.022;2023-01-04T03:20:13;1.95;;;1.30;;
12141;SDS011;6134;59.284;18.022;2023-01-04T03:22:44;2.97;;;1.50;;
12141;SDS011;6134;59.284;18.022;2023-01-04T03:25:32;1.45;;;1.30;;
12141;SDS011;6134;59.284;18.022;2023-01-04T03:28:20;2.50;;;1.67;;
12141;SDS011;6134;59.284;18.022;2023-01-04T03:31:23;1.80;;;1.35;;
12141;SDS011;6134;59.284;18.022;2023-01-04T03:34:10;1.75;;;1.30;;
12141;SDS011;6134;59.284;18.022;2023-01-04T03:36:59;2.08;;;1.23;;
12141;SDS011;6134;59.284;18.022;2023-01-04T03:39:41;1.67;;;1.40;;
12141;SDS011;6134;59.284;18.022;2023-01-04T03:42:30;2.22;;;1.50;;
12141;SDS011;6134;59.284;18.022;2023-01-04T03:45:18;2.03;;;1.35;;
12141;SDS011;6134;59.284;18.022;2023-01-04T03:48:07;2.10;;;1.30;;
12141;SDS011;6134;59.284;18.022;2023-01-04T03:51:00;3.08;;;1.58;;
12141;SDS011;6134;59.284;18.022;2023-01-04T03:53:33;3.33;;;1.70;;
12141;SDS011;6134;59.284;18.022;2023-01-04T03:56:03;2.50;;;1.77;;
12141;SDS011;6134;59.284;18.022;2023-01-04T03:58:32;2.30;;;1.50;;
12141;SDS011;6134;59.284;18.022;2023-01-04T04:01:02;1.38;;;1.27;;
12141;SDS011;6134;59.284;18.022;2023-01-04T04:03:31;2.55;;;1.70;;
12141;SDS011;6134;59.284;18.022;2023-01-04T04:06:18;7.80;;;2.20;;
12141;SDS011;6134;59.284;18.022;2023-01-04T04:09:05;2.17;;;1.75;;
12141;SDS011;6134;59.284;18.022;2023-01-04T04:11:34;3.75;;;1.70;;
12141;SDS011;6134;59.284;18.022;2023-01-04T04:14:03;2.78;;;1.83;;
12141;SDS011;6134;59.284;18.022;2023-01-04T04:16:32;2.45;;;1.88;;
12141;SDS011;6134;59.284;18.022;2023-01-04T04:19:01;3.70;;;1.98;;
12141;SDS011;6134;59.284;18.022;2023-01-04T04:21:34;2.83;;;1.77;;
12141;SDS011;6134;59.284;18.022;2023-01-04T04:24:03;2.20;;;1.50;;
12141;SDS011;6134;59.284;18.022;2023-01-04T04:26:33;2.90;;;1.88;;
12141;SDS011;6134;59.284;18.022;2023-01-04T04:29:02;2.92;;;2.10;;
12141;SDS011;6134;59.284;18.022;2023-01-04T04:31:30;2.45;;;1.60;;
12141;SDS011;6134;59.284;18.022;2023-01-04T04:33:59;2.78;;;1.30;;
12141;SDS011;6134;59.284;18.022;2023-01-04T04:36:28;1.85;;;1.50;;
12141;SDS011;6134;59.284;18.022;2023-01-04T04:38:56;2.38;;;1.33;;
12141;SDS011;6134;59.284;18.022;2023-01-04T04:41:25;3.25;;;1.70;;
12141;SDS011;6134;59.284;18.022;2023-01-04T04:44:09;1.60;;;1.38;;
12141;SDS011;6134;59.284;18.022;2023-01-04T04:46:38;2.00;;;1.63;;
12141;SDS011;6134;59.284;18.022;2023-01-04T04:49:07;2.10;;;1.27;;
12141;SDS011;6134;59.284;18.022;2023-01-04T04:51:36;2.00;;;1.67;;
12141;SDS011;6134;59.284;18.022;2023-01-04T04:54:05;3.55;;;1.73;;
12141;SDS011;6134;59.284;18.022;2023-01-04T04:56:34;2.90;;;1.55;;
12141;SDS011;6134;59.284;18.022;2023-01-04T04:59:03;2.50;;;1.70;;
12141;SDS011;6134;59.284;18.022;2023-01-04T05:01:33;2.40;;;1.67;;
12141;SDS011;6134;59.284;18.022;2023-01-04T05:04:02;3.53;;;1.67;;
12141;SDS011;6134;59.284;18.022;2023-01-04T05:06:31;1.70;;;1.55;;
12141;SDS011;6134;59.284;18.022;2023-01-04T05:09:00;2.47;;;1.70;;
12141;SDS011;6134;59.284;18.022;2023-01-04T05:11:29;2.10;;;1.35;;
12141;SDS011;6134;59.284;18.022;2023-01-04T05:14:15;2.45;;;1.80;;
12141;SDS011;6134;59.284;18.022;2023-01-04T05:16:45;3.72;;;1.75;;
12141;SDS011;6134;59.284;18.022;2023-01-04T05:19:14;2.20;;;1.85;;
12141;SDS011;6134;59.284;18.022;2023-01-04T05:21:42;4.03;;;1.80;;
12141;SDS011;6134;59.284;18.022;2023-01-04T05:24:11;3.58;;;1.50;;
12141;SDS011;6134;59.284;18.022;2023-01-04T05:26:40;4.13;;;1.77;;
12141;SDS011;6134;59.284;18.022;2023-01-04T05:29:09;2.08;;;1.88;;
12141;SDS011;6134;59.284;18.022;2023-01-04T05:31:59;3.58;;;1.60;;
12141;SDS011;6134;59.284;18.022;2023-01-04T05:34:27;2.67;;;1.67;;
12141;SDS011;6134;59.284;18.022;2023-01-04T05:36:56;4.82;;;1.80;;
12141;SDS011;6134;59.284;18.022;2023-01-04T05:39:24;2.53;;;1.50;;
12141;SDS011;6134;59.284;18.022;2023-01-04T05:41:53;2.80;;;1.77;;
12141;SDS011;6134;59.284;18.022;2023-01-04T05:44:39;2.45;;;1.67;;
12141;SDS011;6134;59.284;18.022;2023-01-04T05:47:09;3.10;;;1.60;;
12141;SDS011;6134;59.284;18.022;2023-01-04T05:49:40;4.38;;;1.92;;
12141;SDS011;6134;59.284;18.022;2023-01-04T05:52:09;4.38;;;2.33;;
12141;SDS011;6134;59.284;18.022;2023-01-04T05:54:38;3.88;;;2.17;;
12141;SDS011;6134;59.284;18.022;2023-01-04T05:57:07;4.47;;;2.35;;
12141;SDS011;6134;59.284;18.022;2023-01-04T05:59:36;3.30;;;1.90;;
12141;SDS011;6134;59.284;18.022;2023-01-04T06:02:13;2.92;;;1.80;;
12141;SDS011;6134;59.284;18.022;2023-01-04T06:04:42;2.90;;;1.70;;
12141;SDS011;6134;59.284;18.022;2023-01-04T06:07:11;2.95;;;1.90;;
12141;SDS011;6134;59.284;18.022;2023-01-04T06:09:40;3.22;;;1.77;;
12141;SDS011;6134;59.284;18.022;2023-01-04T06:12:09;3.15;;;2.50;;
12141;SDS011;6134;59.284;18.022;2023-01-04T06:14:39;4.40;;;2.33;;
12141;SDS011;6134;59.284;18.022;2023-01-04T06:17:08;8.25;;;2.63;;
12141;SDS011;6134;59.284;18.022;2023-01-04T06:19:38;6.20;;;3.10;;
12141;SDS011;6134;59.284;18.022;2023-01-04T06:22:07;5.35;;;2.80;;
12141;SDS011;6134;59.284;18.022;2023-01-04T06:24:36;4.53;;;3.05;;
12141;SDS011;6134;59.284;18.022;2023-01-04T06:27:05;3.95;;;2.22;;
12141;SDS011;6134;59.284;18.022;2023-01-04T06:29:33;4.05;;;1.77;;
12141;SDS011;6134;59.284;18.022;2023-01-04T06:32:02;3.60;;;2.35;;
12141;SDS011;6134;59.284;18.022;2023-01-04T06:34:31;3.40;;;1.85;;
12141;SDS011;6134;59.284;18.022;2023-01-04T06:37:01;5.88;;;2.55;;
12141;SDS011;6134;59.284;18.022;2023-01-04T06:39:31;3.42;;;2.30;;
12141;SDS011;6134;59.284;18.022;2023-01-04T06:42:00;4.80;;;2.70;;
12141;SDS011;6134;59.284;18.022;2023-01-04T06:44:32;3.92;;;2.53;;
12141;SDS011;6134;59.284;18.022;2023-01-04T06:47:01;7.38;;;3.45;;
12141;SDS011;6134;59.284;18.022;2023-01-04T06:49:29;4.93;;;2.55;;
12141;SDS011;6134;59.284;18.022;2023-01-04T06:51:58;4.10;;;2.60;;
12141;SDS011;6134;59.284;18.022;2023-01-04T06:54:28;4.28;;;2.78;;
12141;SDS011;6134;59.284;18.022;2023-01-04T06:56:59;4.93;;;3.30;;
12141;SDS011;6134;59.284;18.022;2023-01-04T06:59:27;5.15;;;2.72;;
12141;SDS011;6134;59.284;18.022;2023-01-04T07:01:56;3.75;;;2.67;;
12141;SDS011;6134;59.284;18.022;2023-01-04T07:04:25;3.88;;;2.60;;
12141;SDS011;6134;59.284;18.022;2023-01-04T07:06:54;3.22;;;2.70;;
12141;SDS011;6134;59.284;18.022;2023-01-04T07:09:25;3.80;;;3.35;;
12141;SDS011;6134;59.284;18.022;2023-01-04T07:11:55;5.53;;;4.28;;
12141;SDS011;6134;59.284;18.022;2023-01-04T07:14:24;4.93;;;3.88;;
12141;SDS011;6134;59.284;18.022;2023-01-04T07:16:53;6.82;;;4.38;;
12141;SDS011;6134;59.284;18.022;2023-01-04T07:19:21;5.60;;;4.70;;
12141;SDS011;6134;59.284;18.022;2023-01-04T07:21:50;9.10;;;4.82;;
12141;SDS011;6134;59.284;18.022;2023-01-04T07:24:19;6.15;;;4.55;;
12141;SDS011;6134;59.284;18.022;2023-01-04T07:26:57;5.53;;;4.43;;
12141;SDS011;6134;59.284;18.022;2023-01-04T07:29:26;5.80;;;4.35;;
12141;SDS011;6134;59.284;18.022;2023-01-04T07:31:55;4.70;;;3.72;;
12141;SDS011;6134;59.284;18.022;2023-01-04T07:34:24;4.47;;;3.80;;
12141;SDS011;6134;59.284;18.022;2023-01-04T07:36:53;4.97;;;3.72;;
12141;SDS011;6134;59.284;18.022;2023-01-04T07:39:22;5.32;;;3.90;;
12141;SDS011;6134;59.284;18.022;2023-01-04T07:41:51;5.07;;;3.92;;
12141;SDS011;6134;59.284;18.022;2023-01-04T07:44:23;5.03;;;3.75;;
12141;SDS011;6134;59.284;18.022;2023-01-04T07:46:53;6.15;;;4.43;;
12141;SDS011;6134;59.284;18.022;2023-01-04T07:49:22;7.03;;;4.65;;
12141;SDS011;6134;59.284;18.022;2023-01-04T07:51:51;8.25;;;4.30;;
12141;SDS011;6134;59.284;18.022;2023-01-04T07:54:20;5.10;;;4.40;;
12141;SDS011;6134;59.284;18.022;2023-01-04T07:56:49;6.03;;;4.70;;
12141;SDS011;6134;59.284;18.022;2023-01-04T07:59:19;4.18;;;3.63;;
12141;SDS011;6134;59.284;18.022;2023-01-04T08:01:49;5.88;;;3.95;;
12141;SDS011;6134;59.284;18.022;2023-01-04T08:04:20;4.63;;;3.55;;
12141;SDS011;6134;59.284;18.022;2023-01-04T08:06:55;6.05;;;3.55;;
12141;SDS011;6134;59.284;18.022;2023-01-04T08:09:23;4.40;;;3.13;;
12141;SDS011;6134;59.284;18.022;2023-01-04T08:11:52;3.90;;;3.33;;
12141;SDS011;6134;59.284;18.022;2023-01-04T08:14:21;7.55;;;3.83;;
12141;SDS011;6134;59.284;18.022;2023-01-04T08:16:51;5.35;;;3.20;;
12141;SDS011;6134;59.284;18.022;2023-01-04T08:19:20;5.50;;;3.45;;
12141;SDS011;6134;59.284;18.022;2023-01-04T08:21:48;3.88;;;3.03;;
12141;SDS011;6134;59.284;18.022;2023-01-04T08:24:19;3.47;;;2.67;;
12141;SDS011;6134;59.284;18.022;2023-01-04T08:26:48;3.80;;;2.85;;
12141;SDS011;6134;59.284;18.022;2023-01-04T08:29:17;4.00;;;3.00;;
12141;SDS011;6134;59.284;18.022;2023-01-04T08:31:45;5.13;;;2.90;;
12141;SDS011;6134;59.284;18.022;2023-01-04T08:34:15;4.45;;;3.20;;
12141;SDS011;6134;59.284;18.022;2023-01-04T08:36:45;6.35;;;3.75;;
12141;SDS011;6134;59.284;18.022;2023-01-04T08:39:14;7.80;;;5.25;;
12141;SDS011;6134;59.284;18.022;2023-01-04T08:41:44;6.00;;;3.72;;
12141;SDS011;6134;59.284;18.022;2023-01-04T08:44:30;4.75;;;4.03;;
12141;SDS011;6134;59.284;18.022;2023-01-04T08:47:00;3.15;;;2.60;;
12141;SDS011;6134;59.284;18.022;2023-01-04T08:49:30;2.88;;;2.40;;
12141;SDS011;6134;59.284;18.022;2023-01-04T08:51:59;4.00;;;2.70;;
12141;SDS011;6134;59.284;18.022;2023-01-04T08:54:28;2.47;;;2.28;;
12141;SDS011;6134;59.284;18.022;2023-01-04T08:56:56;4.25;;;2.25;;
12141;SDS011;6134;59.284;18.022;2023-01-04T08:59:25;3.10;;;2.40;;
12141;SDS011;6134;59.284;18.022;2023-01-04T09:01:54;2.88;;;2.40;;
12141;SDS011;6134;59.284;18.022;2023-01-04T09:04:32;3.22;;;2.30;;
12141;SDS011;6134;59.284;18.022;2023-01-04T09:07:01;3.08;;;2.40;;
12141;SDS011;6134;59.284;18.022;2023-01-04T09:09:29;3.08;;;2.55;;
12141;SDS011;6134;59.284;18.022;2023-01-04T09:11:58;4.53;;;2.90;;
12141;SDS011;6134;59.284;18.022;2023-01-04T09:14:27;5.65;;;2.70;;
12141;SDS011;6134;59.284;18.022;2023-01-04T09:16:55;3.67;;;2.60;;
12141;SDS011;6134;59.284;18.022;2023-01-04T09:19:24;2.60;;;2.28;;
12141;SDS011;6134;59.284;18.022;2023-01-04T09:21:54;3.33;;;2.20;;
12141;SDS011;6134;59.284;18.022;2023-01-04T09:24:23;3.72;;;2.78;;
12141;SDS011;6134;59.284;18.022;2023-01-04T09:26:52;3.65;;;2.70;;
12141;SDS011;6134;59.284;18.022;2023-01-04T09:29:21;3.08;;;2.55;;
12141;SDS011;6134;59.284;18.022;2023-01-04T09:31:50;2.70;;;2.50;;
12141;SDS011;6134;59.284;18.022;2023-01-04T09:34:18;3.17;;;2.30;;
12141;SDS011;6134;59.284;18.022;2023-01-04T09:36:47;2.72;;;2.53;;
12141;SDS011;6134;59.284;18.022;2023-01-04T09:39:19;3.17;;;2.03;;
12141;SDS011;6134;59.284;18.022;2023-01-04T09:41:52;6.25;;;2.70;;
12141;SDS011;6134;59.284;18.022;2023-01-04T09:44:29;4.28;;;2.42;;
12141;SDS011;6134;59.284;18.022;2023-01-04T09:47:20;4.88;;;2.72;;
12141;SDS011;6134;59.284;18.022;2023-01-04T09:49:55;4.68;;;2.80;;
12141;SDS011;6134;59.284;18.022;2023-01-04T09:52:29;4.65;;;2.65;;
12141;SDS011;6134;59.284;18.022;2023-01-04T09:55:06;5.18;;;3.10;;
12141;SDS011;6134;59.284;18.022;2023-01-04T09:57:56;4.57;;;2.47;;
12141;SDS011;6134;59.284;18.022;2023-01-04T10:00:27;3.60;;;2.45;;
12141;SDS011;6134;59.284;18.022;2023-01-04T10:02:57;2.50;;;2.15;;
12141;SDS011;6134;59.284;18.022;2023-01-04T10:05:29;2.85;;;2.15;;
12141;SDS011;6134;59.284;18.022;2023-01-04T10:07:58;3.20;;;2.20;;
12141;SDS011;6134;59.284;18.022;2023-01-04T10:10:37;4.30;;;2.53;;
12141;SDS011;6134;59.284;18.022;2023-01-04T10:13:10;4.28;;;2.33;;
12141;SDS011;6134;59.284;18.022;2023-01-04T10:15:43;3.67;;;2.10;;
12141;SDS011;6134;59.284;18.022;2023-01-04T10:18:17;2.50;;;1.70;;
12141;SDS011;6134;59.284;18.022;2023-01-04T10:21:09;2.38;;;2.17;;
12141;SDS011;6134;59.284;18.022;2023-01-04T10:24:02;2.35;;;2.00;;
12141;SDS011;6134;59.284;18.022;2023-01-04T10:26:40;2.05;;;1.70;;
12141;SDS011;6134;59.284;18.022;2023-01-04T10:29:24;6.45;;;2.22;;
12141;SDS011;6134;59.284;18.022;2023-01-04T10:31:59;2.08;;;1.83;;
12141;SDS011;6134;59.284;18.022;2023-01-04T10:34:29;5.32;;;1.70;;
12141;SDS011;6134;59.284;18.022;2023-01-04T10:37:02;2.08;;;1.50;;
12141;SDS011;6134;59.284;18.022;2023-01-04T10:39:32;1.73;;;1.40;;
12141;SDS011;6134;59.284;18.022;2023-01-04T10:42:07;3.83;;;1.52;;
12141;SDS011;6134;59.284;18.022;2023-01-04T10:44:40;3.13;;;1.38;;
12141;SDS011;6134;59.284;18.022;2023-01-04T10:47:10;2.67;;;1.40;;
12141;SDS011;6134;59.284;18.022;2023-01-04T10:49:42;2.42;;;1.85;;
12141;SDS011;6134;59.284;18.022;2023-01-04T10:52:13;2.53;;;1.50;;
12141;SDS011;6134;59.284;18.022;2023-01-04T10:54:45;2.35;;;1.20;;
12141;SDS011;6134;59.284;18.022;2023-01-04T10:57:17;2.13;;;1.48;;
12141;SDS011;6134;59.284;18.022;2023-01-04T10:59:48;2.10;;;1.20;;
12141;SDS011;6134;59.284;18.022;2023-01-04T11:02:21;3.13;;;1.38;;
12141;SDS011;6134;59.284;18.022;2023-01-04T11:04:55;2.65;;;1.20;;
12141;SDS011;6134;59.284;18.022;2023-01-04T11:07:25;2.70;;;1.40;;
12141;SDS011;6134;59.284;18.022;2023-01-04T11:09:56;4.00;;;1.38;;
12141;SDS011;6134;59.284;18.022;2023-01-04T11:12:28;1.55;;;1.27;;
12141;SDS011;6134;59.284;18.022;2023-01-04T11:14:57;3.60;;;1.30;;
12141;SDS011;6134;59.284;18.022;2023-01-04T11:17:25;3.67;;;1.80;;
12141;SDS011;6134;59.284;18.022;2023-01-04T11:19:54;2.67;;;1.23;;
12141;SDS011;6134;59.284;18.022;2023-01-04T11:22:24;3.50;;;1.38;;
12141;SDS011;6134;59.284;18.022;2023-01-04T11:24:56;3.88;;;1.42;;
12141;SDS011;6134;59.284;18.022;2023-01-04T11:27:50;2.20;;;1.63;;
12141;SDS011;6134;59.284;18.022;2023-01-04T11:30:20;4.20;;;1.98;;
12141;SDS011;6134;59.284;18.022;2023-01-04T11:32:51;3.20;;;1.88;;
12141;SDS011;6134;59.284;18.022;2023-01-04T11:35:38;3.33;;;1.67;;
12141;SDS011;6134;59.284;18.022;2023-01-04T11:38:10;3.40;;;1.58;;
12141;SDS011;6134;59.284;18.022;2023-01-04T11:40:39;1.80;;;1.70;;
12141;SDS011;6134;59.284;18.022;2023-01-04T11:43:15;4.03;;;1.90;;
12141;SDS011;6134;59.284;18.022;2023-01-04T11:45:54;1.77;;;1.40;;
12141;SDS011;6134;59.284;18.022;2023-01-04T11:48:31;3.38;;;1.42;;
12141;SDS011;6134;59.284;18.022;2023-01-04T11:51:00;2.08;;;1.33;;
12141;SDS011;6134;59.284;18.022;2023-01-04T11:53:30;1.90;;;1.50;;
12141;SDS011;6134;59.284;18.022;2023-01-04T11:56:12;2.15;;;1.40;;
12141;SDS011;6134;59.284;18.022;2023-01-04T11:58:43;2.40;;;1.60;;
12141;SDS011;6134;59.284;18.022;2023-01-04T12:01:19;1.60;;;1.40;;
12141;SDS011;6134;59.284;18.022;2023-01-04T12:03:48;3.20;;;1.77;;
12141;SDS011;6134;59.284;18.022;2023-01-04T12:06:18;2.05;;;1.60;;
12141;SDS011;6134;59.284;18.022;2023-01-04T12:08:48;2.78;;;1.67;;
12141;SDS011;6134;59.284;18.022;2023-01-04T12:11:18;2.50;;;1.98;;
12141;SDS011;6134;59.284;18.022;2023-01-04T12:13:48;6.20;;;1.98;;
12141;SDS011;6134;59.284;18.022;2023-01-04T12:16:20;2.78;;;1.75;;
12141;SDS011;6134;59.284;18.022;2023-01-04T12:18:50;1.75;;;1.50;;
12141;SDS011;6134;59.284;18.022;2023-01-04T12:21:19;2.05;;;1.80;;
12141;SDS011;6134;59.284;18.022;2023-01-04T12:23:48;1.75;;;1.65;;
12141;SDS011;6134;59.284;18.022;2023-01-04T12:26:17;5.07;;;1.98;;
12141;SDS011;6134;59.284;18.022;2023-01-04T12:28:47;2.15;;;1.80;;
12141;SDS011;6134;59.284;18.022;2023-01-04T12:31:30;1.88;;;1.67;;
12141;SDS011;6134;59.284;18.022;2023-01-04T12:36:52;4.38;;;1.73;;
12141;SDS011;6134;59.284;18.022;2023-01-04T12:39:38;3.25;;;2.15;;
12141;SDS011;6134;59.284;18.022;2023-01-04T12:42:10;1.60;;;1.50;;
12141;SDS011;6134;59.284;18.022;2023-01-04T12:47:45;2.30;;;2.05;;
12141;SDS011;6134;59.284;18.022;2023-01-04T12:50:31;1.92;;;1.73;;
12141;SDS011;6134;59.284;18.022;2023-01-04T12:53:06;3.00;;;1.60;;
12141;SDS011;6134;59.284;18.022;2023-01-04T12:55:56;2.17;;;1.65;;
12141;SDS011;6134;59.284;18.022;2023-01-04T12:58:38;1.80;;;1.50;;
12141;SDS011;6134;59.284;18.022;2023-01-04T13:01:27;2.28;;;1.65;;
12141;SDS011;6134;59.284;18.022;2023-01-04T13:03:59;1.50;;;1.40;;
12141;SDS011;6134;59.284;18.022;2023-01-04T13:06:32;1.30;;;1.20;;
12141;SDS011;6134;59.284;18.022;2023-01-04T13:09:01;1.98;;;1.67;;
12141;SDS011;6134;59.284;18.022;2023-01-04T13:11:34;4.00;;;2.50;;
12141;SDS011;6134;59.284;18.022;2023-01-04T13:14:05;2.03;;;1.50;;
12141;SDS011;6134;59.284;18.022;2023-01-04T13:16:38;3.03;;;1.83;;
12141;SDS011;6134;59.284;18.022;2023-01-04T13:19:14;2.45;;;1.60;;
12141;SDS011;6134;59.284;18.022;2023-01-04T13:21:44;4.78;;;2.47;;
12141;SDS011;6134;59.284;18.022;2023-01-04T13:24:17;3.78;;;2.47;;
12141;SDS011;6134;59.284;18.022;2023-01-04T13:26:47;3.30;;;2.67;;
12141;SDS011;6134;59.284;18.022;2023-01-04T13:29:17;4.40;;;2.72;;
12141;SDS011;6134;59.284;18.022;2023-01-04T13:31:50;1.98;;;1.73;;
12141;SDS011;6134;59.284;18.022;2023-01-04T13:34:25;3.03;;;2.03;;
12141;SDS011;6134;59.284;18.022;2023-01-04T13:37:03;3.47;;;1.80;;
12141;SDS011;6134;59.284;18.022;2023-01-04T13:39:33;2.65;;;2.15;;
12141;SDS011;6134;59.284;18.022;2023-01-04T13:42:02;2.92;;;1.92;;
12141;SDS011;6134;59.284;18.022;2023-01-04T13:44:47;3.45;;;1.77;;
12141;SDS011;6134;59.284;18.022;2023-01-04T13:47:38;2.10;;;1.70;;
12141;SDS011;6134;59.284;18.022;2023-01-04T13:50:16;3.53;;;2.10;;
12141;SDS011;6134;59.284;18.022;2023-01-04T13:52:50;2.25;;;2.00;;
12141;SDS011;6134;59.284;18.022;2023-01-04T13:55:33;5.10;;;2.10;;
12141;SDS011;6134;59.284;18.022;2023-01-04T13:58:02;5.20;;;2.03;;
12141;SDS011;6134;59.284;18.022;2023-01-04T14:00:32;2.40;;;1.90;;
12141;SDS011;6134;59.284;18.022;2023-01-04T14:03:13;2.20;;;1.67;;
12141;SDS011;6134;59.284;18.022;2023-01-04T14:05:48;2.78;;;2.05;;
12141;SDS011;6134;59.284;18.022;2023-01-04T14:08:20;2.90;;;1.70;;
12141;SDS011;6134;59.284;18.022;2023-01-04T14:10:50;3.30;;;1.52;;
12141;SDS011;6134;59.284;18.022;2023-01-04T14:13:19;1.88;;;1.63;;
12141;SDS011;6134;59.284;18.022;2023-01-04T14:16:00;2.22;;;1.77;;
12141;SDS011;6134;59.284;18.022;2023-01-04T14:18:30;2.22;;;1.55;;
12141;SDS011;6134;59.284;18.022;2023-01-04T14:21:01;2.50;;;1.65;;
12141;SDS011;6134;59.284;18.022;2023-01-04T14:23:32;2.33;;;1.50;;
12141;SDS011;6134;59.284;18.022;2023-01-04T14:26:01;4.25;;;1.88;;
12141;SDS011;6134;59.284;18.022;2023-01-04T14:28:30;1.65;;;1.52;;
12141;SDS011;6134;59.284;18.022;2023-01-04T14:31:18;3.83;;;2.13;;
12141;SDS011;6134;59.284;18.022;2023-01-04T14:33:48;1.88;;;1.70;;
12141;SDS011;6134;59.284;18.022;2023-01-04T14:36:20;3.17;;;1.50;;
12141;SDS011;6134;59.284;18.022;2023-01-04T14:38:55;2.90;;;1.42;;
12141;SDS011;6134;59.284;18.022;2023-01-04T14:41:27;2.13;;;1.25;;
12141;SDS011;6134;59.284;18.022;2023-01-04T14:44:10;2.63;;;1.30;;
12141;SDS011;6134;59.284;18.022;2023-01-04T14:46:39;2.80;;;1.38;;
12141;SDS011;6134;59.284;18.022;2023-01-04T14:49:09;1.50;;;1.40;;
12141;SDS011;6134;59.284;18.022;2023-01-04T14:51:41;1.48;;;1.30;;
12141;SDS011;6134;59.284;18.022;2023-01-04T14:54:11;1.60;;;1.30;;
12141;SDS011;6134;59.284;18.022;2023-01-04T14:56:49;2.35;;;1.60;;
12141;SDS011;6134;59.284;18.022;2023-01-04T14:59:18;1.90;;;1.35;;
12141;SDS011;6134;59.284;18.022;2023-01-04T15:01:49;2.55;;;1.33;;
12141;SDS011;6134;59.284;18.022;2023-01-04T15:04:18;3.05;;;2.30;;
12141;SDS011;6134;59.284;18.022;2023-01-04T15:06:50;3.53;;;1.63;;
12141;SDS011;6134;59.284;18.022;2023-01-04T15:09:19;1.20;;;1.10;;
12141;SDS011;6134;59.284;18.022;2023-01-04T15:11:48;1.65;;;1.50;;
12141;SDS011;6134;59.284;18.022;2023-01-04T15:14:16;1.50;;;1.40;;
12141;SDS011;6134;59.284;18.022;2023-01-04T15:16:45;3.15;;;1.60;;
12141;SDS011;6134;59.284;18.022;2023-01-04T15:19:14;1.63;;;1.38;;
12141;SDS011;6134;59.284;18.022;2023-01-04T15:21:43;2.05;;;1.52;;
12141;SDS011;6134;59.284;18.022;2023-01-04T15:24:13;1.70;;;0.80;;
12141;SDS011;6134;59.284;18.022;2023-01-04T15:26:42;1.67;;;1.30;;
12141;SDS011;6134;59.284;18.022;2023-01-04T15:29:10;1.95;;;1.27;;
12141;SDS011;6134;59.284;18.022;2023-01-04T15:31:39;0.98;;;0.80;;